Station Historical Data
Daily Summary for April 17, 2012 Units:  Both    English   Metric
« Previous Day
Next Day »
Daily Weekly Monthly Yearly Custom
  High: Low: Average:
Temperature: 60.0 °F /  15.6 °C 51.9 °F /  11.1 °C 56.2 °F /  13.4 °C
Dew Point: 56.5 °F /  13.6 °C 50.5 °F /  10.3 °C 53.6 °F /  12 °C
Humidity: 95% 85% 91%
Wind Speed: 11.0mph /  17.7km/h - 3.5mph /  5.6km/h
Wind Gust: 16.0mph /  25.7km/h - -
Wind- - SSE
Pressure: 30.26 in /  1024.6 hPa 30.13 in /  1020.2 hPa -
Precipitation: 0.38 in /  9.65 mm    
Historical Graphs
 
 
Tabular Data for April 17, 2012
Time Temperature Dew Point Pressure Wind Wind Speed Wind Gust Humidity Rainfall Rate (Hourly) Conditions
00:00 60.0 °F /  15.6 °C 56.4 °F /  13.6 °C 30.15in /  1020.9hPa NW 4.0mph /  6.4km/h 4.0mph /  6.4km/h 88% 0.00in /  0mm
00:05 59.9 °F /  15.5 °C 56.3 °F /  13.5 °C 30.15in /  1020.9hPa NW 4.0mph /  6.4km/h 4.0mph /  6.4km/h 88% 0.00in /  0mm
00:06 59.9 °F /  15.5 °C 56.3 °F /  13.5 °C 30.15in /  1020.9hPa NNW 2.0mph /  3.2km/h 4.0mph /  6.4km/h 88% 0.00in /  0mm
00:11 59.8 °F /  15.4 °C 56.2 °F /  13.4 °C 30.15in /  1020.9hPa NW 2.0mph /  3.2km/h 3.0mph /  4.8km/h 88% 0.00in /  0mm
00:16 59.7 °F /  15.4 °C 56.2 °F /  13.4 °C 30.15in /  1020.9hPa NNE 2.0mph /  3.2km/h 3.0mph /  4.8km/h 88% 0.00in /  0mm
00:21 59.7 °F /  15.4 °C 56.2 °F /  13.4 °C 30.15in /  1020.9hPa NNE 2.0mph /  3.2km/h 3.0mph /  4.8km/h 88% 0.00in /  0mm
00:26 59.7 °F /  15.4 °C 56.2 °F /  13.4 °C 30.15in /  1020.9hPa NNE 2.0mph /  3.2km/h 3.0mph /  4.8km/h 88% 0.00in /  0mm
00:31 59.7 °F /  15.4 °C 56.2 °F /  13.4 °C 30.15in /  1020.9hPa NE 1.0mph /  1.6km/h 2.0mph /  3.2km/h 88% 0.00in /  0mm
00:36 59.7 °F /  15.4 °C 56.2 °F /  13.4 °C 30.15in /  1020.9hPa ENE 2.0mph /  3.2km/h 2.0mph /  3.2km/h 88% 0.00in /  0mm
00:41 59.7 °F /  15.4 °C 56.5 °F /  13.6 °C 30.15in /  1020.9hPa East 1.0mph /  1.6km/h 3.0mph /  4.8km/h 89% 0.00in /  0mm
00:47 59.7 °F /  15.4 °C 56.2 °F /  13.4 °C 30.15in /  1020.9hPa ENE 1.0mph /  1.6km/h 3.0mph /  4.8km/h 88% 0.00in /  0mm
00:52 59.6 °F /  15.3 °C 56.0 °F /  13.3 °C 30.15in /  1020.9hPa NE 4.0mph /  6.4km/h 4.0mph /  6.4km/h 88% 0.00in /  0mm
00:57 59.7 °F /  15.4 °C 56.2 °F /  13.4 °C 30.15in /  1020.9hPa NE 3.0mph /  4.8km/h 3.0mph /  4.8km/h 88% 0.00in /  0mm
01:02 59.7 °F /  15.4 °C 56.2 °F /  13.4 °C 30.14in /  1020.5hPa NE 3.0mph /  4.8km/h 3.0mph /  4.8km/h 88% 0.00in /  0mm
01:07 59.6 °F /  15.3 °C 56.0 °F /  13.3 °C 30.14in /  1020.5hPa NNE 3.0mph /  4.8km/h 4.0mph /  6.4km/h 88% 0.00in /  0mm
01:12 59.6 °F /  15.3 °C 56.4 °F /  13.6 °C 30.14in /  1020.5hPa NNE 2.0mph /  3.2km/h 5.0mph /  8km/h 89% 0.00in /  0mm
01:17 59.5 °F /  15.3 °C 56.3 °F /  13.5 °C 30.14in /  1020.5hPa NNE 1.0mph /  1.6km/h 3.0mph /  4.8km/h 89% 0.00in /  0mm
01:23 59.4 °F /  15.2 °C 56.2 °F /  13.4 °C 30.15in /  1020.9hPa NNE 2.0mph /  3.2km/h 4.0mph /  6.4km/h 89% 0.00in /  0mm
01:28 59.3 °F /  15.2 °C 56.1 °F /  13.4 °C 30.15in /  1020.9hPa North 3.0mph /  4.8km/h 3.0mph /  4.8km/h 89% 0.00in /  0mm
01:33 59.2 °F /  15.1 °C 56.0 °F /  13.3 °C 30.14in /  1020.5hPa NNW 2.0mph /  3.2km/h 5.0mph /  8km/h 89% 0.00in /  0mm
01:38 59.2 °F /  15.1 °C 56.3 °F /  13.5 °C 30.14in /  1020.5hPa NW 2.0mph /  3.2km/h 5.0mph /  8km/h 90% 0.00in /  0mm
01:43 59.2 °F /  15.1 °C 56.3 °F /  13.5 °C 30.14in /  1020.5hPa NNW 1.0mph /  1.6km/h 4.0mph /  6.4km/h 90% 0.00in /  0mm
01:48 59.1 °F /  15.1 °C 56.2 °F /  13.4 °C 30.15in /  1020.9hPa NNW 4.0mph /  6.4km/h 6.0mph /  9.7km/h 90% 0.00in /  0mm
01:53 59.1 °F /  15.1 °C 56.2 °F /  13.4 °C 30.14in /  1020.5hPa NE 1.0mph /  1.6km/h 4.0mph /  6.4km/h 90% 0.00in /  0mm
01:58 59.0 °F /  15 °C 56.1 °F /  13.4 °C 30.14in /  1020.5hPa NNE 1.0mph /  1.6km/h 4.0mph /  6.4km/h 90% 0.00in /  0mm
02:03 58.9 °F /  14.9 °C 56.0 °F /  13.3 °C 30.14in /  1020.5hPa NNW 4.0mph /  6.4km/h 4.0mph /  6.4km/h 90% 0.00in /  0mm
02:08 58.9 °F /  14.9 °C 56.0 °F /  13.3 °C 30.15in /  1020.9hPa North 3.0mph /  4.8km/h 3.0mph /  4.8km/h 90% 0.00in /  0mm
02:13 58.9 °F /  14.9 °C 56.3 °F /  13.5 °C 30.15in /  1020.9hPa North 1.0mph /  1.6km/h 2.0mph /  3.2km/h 91% 0.00in /  0mm
02:18 58.8 °F /  14.9 °C 56.2 °F /  13.4 °C 30.15in /  1020.9hPa NNE 3.0mph /  4.8km/h 3.0mph /  4.8km/h 91% 0.00in /  0mm
02:23 58.8 °F /  14.9 °C 56.2 °F /  13.4 °C 30.15in /  1020.9hPa NNE 2.0mph /  3.2km/h 3.0mph /  4.8km/h 91% 0.00in /  0mm
02:28 58.7 °F /  14.8 °C 56.1 °F /  13.4 °C 30.15in /  1020.9hPa North 3.0mph /  4.8km/h 4.0mph /  6.4km/h 91% 0.00in /  0mm
02:33 58.6 °F /  14.8 °C 56.0 °F /  13.3 °C 30.14in /  1020.5hPa NE 2.0mph /  3.2km/h 4.0mph /  6.4km/h 91% 0.00in /  0mm
02:38 58.6 °F /  14.8 °C 56.0 °F /  13.3 °C 30.14in /  1020.5hPa NE 2.0mph /  3.2km/h 4.0mph /  6.4km/h 91% 0.00in /  0mm
02:43 58.7 °F /  14.8 °C 55.8 °F /  13.2 °C 30.14in /  1020.5hPa North 2.0mph /  3.2km/h 4.0mph /  6.4km/h 90% 0.00in /  0mm
02:48 58.7 °F /  14.8 °C 55.8 °F /  13.2 °C 30.14in /  1020.5hPa NNE 4.0mph /  6.4km/h 4.0mph /  6.4km/h 90% 0.00in /  0mm
02:53 58.7 °F /  14.8 °C 55.8 °F /  13.2 °C 30.14in /  1020.5hPa NE 3.0mph /  4.8km/h 4.0mph /  6.4km/h 90% 0.00in /  0mm
02:58 58.6 °F /  14.8 °C 55.7 °F /  13.2 °C 30.14in /  1020.5hPa NE 5.0mph /  8km/h 5.0mph /  8km/h 90% 0.00in /  0mm
03:03 58.6 °F /  14.8 °C 56.0 °F /  13.3 °C 30.13in /  1020.2hPa NE 4.0mph /  6.4km/h 7.0mph /  11.3km/h 91% 0.00in /  0mm
03:08 58.6 °F /  14.8 °C 56.0 °F /  13.3 °C 30.13in /  1020.2hPa NE 3.0mph /  4.8km/h 6.0mph /  9.7km/h 91% 0.00in /  0mm
03:13 58.5 °F /  14.7 °C 55.9 °F /  13.3 °C 30.13in /  1020.2hPa NE 4.0mph /  6.4km/h 5.0mph /  8km/h 91% 0.00in /  0mm
03:18 58.5 °F /  14.7 °C 55.9 °F /  13.3 °C 30.14in /  1020.5hPa North 3.0mph /  4.8km/h 4.0mph /  6.4km/h 91% 0.00in /  0mm
03:23 58.4 °F /  14.7 °C 55.8 °F /  13.2 °C 30.14in /  1020.5hPa NNW 4.0mph /  6.4km/h 5.0mph /  8km/h 91% 0.00in /  0mm
03:28 58.3 °F /  14.6 °C 55.7 °F /  13.2 °C 30.14in /  1020.5hPa NNW 3.0mph /  4.8km/h 4.0mph /  6.4km/h 91% 0.00in /  0mm
03:33 58.3 °F /  14.6 °C 55.7 °F /  13.2 °C 30.14in /  1020.5hPa North 2.0mph /  3.2km/h 6.0mph /  9.7km/h 91% 0.00in /  0mm
03:38 58.4 °F /  14.7 °C 55.8 °F /  13.2 °C 30.14in /  1020.5hPa NNE 4.0mph /  6.4km/h 5.0mph /  8km/h 91% 0.00in /  0mm
03:43 58.4 °F /  14.7 °C 55.8 °F /  13.2 °C 30.14in /  1020.5hPa NNW 2.0mph /  3.2km/h 4.0mph /  6.4km/h 91% 0.00in /  0mm
03:48 58.4 °F /  14.7 °C 55.8 °F /  13.2 °C 30.14in /  1020.5hPa NNE 2.0mph /  3.2km/h 6.0mph /  9.7km/h 91% 0.00in /  0mm
03:54 58.4 °F /  14.7 °C 55.5 °F /  13.1 °C 30.15in /  1020.9hPa NNE 3.0mph /  4.8km/h 5.0mph /  8km/h 90% 0.00in /  0mm
03:59 58.4 °F /  14.7 °C 55.5 °F /  13.1 °C 30.14in /  1020.5hPa NNE 2.0mph /  3.2km/h 6.0mph /  9.7km/h 90% 0.00in /  0mm
04:03 58.4 °F /  14.7 °C 55.5 °F /  13.1 °C 30.14in /  1020.5hPa NE 2.0mph /  3.2km/h 3.0mph /  4.8km/h 90% 0.00in /  0mm
04:08 58.3 °F /  14.6 °C 55.4 °F /  13 °C 30.14in /  1020.5hPa NNE 1.0mph /  1.6km/h 3.0mph /  4.8km/h 90% 0.00in /  0mm
04:14 58.2 °F /  14.6 °C 55.3 °F /  12.9 °C 30.14in /  1020.5hPa NW 1.0mph /  1.6km/h 4.0mph /  6.4km/h 90% 0.00in /  0mm
04:19 58.2 °F /  14.6 °C 55.3 °F /  12.9 °C 30.14in /  1020.5hPa North 2.0mph /  3.2km/h 3.0mph /  4.8km/h 90% 0.00in /  0mm
04:24 58.1 °F /  14.5 °C 55.2 °F /  12.9 °C 30.14in /  1020.5hPa North 5.0mph /  8km/h 5.0mph /  8km/h 90% 0.00in /  0mm
04:29 58.1 °F /  14.5 °C 55.2 °F /  12.9 °C 30.14in /  1020.5hPa North 2.0mph /  3.2km/h 4.0mph /  6.4km/h 90% 0.00in /  0mm
04:34 58.1 °F /  14.5 °C 55.2 °F /  12.9 °C 30.14in /  1020.5hPa North 1.0mph /  1.6km/h 7.0mph /  11.3km/h 90% 0.00in /  0mm
04:39 58.1 °F /  14.5 °C 55.2 °F /  12.9 °C 30.14in /  1020.5hPa NNW 1.0mph /  1.6km/h 5.0mph /  8km/h 90% 0.00in /  0mm
04:44 58.1 °F /  14.5 °C 55.2 °F /  12.9 °C 30.14in /  1020.5hPa NNE 4.0mph /  6.4km/h 4.0mph /  6.4km/h 90% 0.00in /  0mm
04:49 58.2 °F /  14.6 °C 55.0 °F /  12.8 °C 30.14in /  1020.5hPa NNW 2.0mph /  3.2km/h 5.0mph /  8km/h 89% 0.00in /  0mm
04:54 58.2 °F /  14.6 °C 55.0 °F /  12.8 °C 30.14in /  1020.5hPa North 2.0mph /  3.2km/h 3.0mph /  4.8km/h 89% 0.00in /  0mm
04:59 58.2 °F /  14.6 °C 55.0 °F /  12.8 °C 30.15in /  1020.9hPa NNW 1.0mph /  1.6km/h 3.0mph /  4.8km/h 89% 0.00in /  0mm
05:04 58.2 °F /  14.6 °C 55.0 °F /  12.8 °C 30.15in /  1020.9hPa NNE 3.0mph /  4.8km/h 5.0mph /  8km/h 89% 0.00in /  0mm
05:09 58.2 °F /  14.6 °C 55.0 °F /  12.8 °C 30.15in /  1020.9hPa NNE 5.0mph /  8km/h 6.0mph /  9.7km/h 89% 0.00in /  0mm
05:14 58.3 °F /  14.6 °C 55.1 °F /  12.8 °C 30.15in /  1020.9hPa NNE 4.0mph /  6.4km/h 6.0mph /  9.7km/h 89% 0.00in /  0mm
05:19 58.2 °F /  14.6 °C 55.0 °F /  12.8 °C 30.15in /  1020.9hPa North 4.0mph /  6.4km/h 4.0mph /  6.4km/h 89% 0.00in /  0mm
05:24 58.2 °F /  14.6 °C 55.0 °F /  12.8 °C 30.15in /  1020.9hPa NNE 2.0mph /  3.2km/h 6.0mph /  9.7km/h 89% 0.00in /  0mm
05:29 58.2 °F /  14.6 °C 55.0 °F /  12.8 °C 30.16in /  1021.2hPa North 3.0mph /  4.8km/h 4.0mph /  6.4km/h 89% 0.00in /  0mm
05:34 58.2 °F /  14.6 °C 55.0 °F /  12.8 °C 30.16in /  1021.2hPa North 3.0mph /  4.8km/h 9.0mph /  14.5km/h 89% 0.00in /  0mm
05:39 58.2 °F /  14.6 °C 55.0 °F /  12.8 °C 30.16in /  1021.2hPa NNW 4.0mph /  6.4km/h 5.0mph /  8km/h 89% 0.00in /  0mm
05:44 58.1 °F /  14.5 °C 54.9 °F /  12.7 °C 30.16in /  1021.2hPa North 4.0mph /  6.4km/h 7.0mph /  11.3km/h 89% 0.00in /  0mm
05:49 58.1 °F /  14.5 °C 54.9 °F /  12.7 °C 30.16in /  1021.2hPa North 4.0mph /  6.4km/h 6.0mph /  9.7km/h 89% 0.00in /  0mm
05:54 58.1 °F /  14.5 °C 54.9 °F /  12.7 °C 30.16in /  1021.2hPa NNW 5.0mph /  8km/h 5.0mph /  8km/h 89% 0.00in /  0mm
05:59 58.1 °F /  14.5 °C 54.9 °F /  12.7 °C 30.16in /  1021.2hPa ENE 4.0mph /  6.4km/h 6.0mph /  9.7km/h 89% 0.00in /  0mm
06:04 58.1 °F /  14.5 °C 54.6 °F /  12.6 °C 30.16in /  1021.2hPa NE 3.0mph /  4.8km/h 7.0mph /  11.3km/h 88% 0.00in /  0mm
06:09 58.1 °F /  14.5 °C 54.6 °F /  12.6 °C 30.16in /  1021.2hPa NE 5.0mph /  8km/h 6.0mph /  9.7km/h 88% 0.00in /  0mm
06:14 58.0 °F /  14.4 °C 54.5 °F /  12.5 °C 30.16in /  1021.2hPa NE 6.0mph /  9.7km/h 7.0mph /  11.3km/h 88% 0.00in /  0mm
06:19 58.1 °F /  14.5 °C 54.6 °F /  12.6 °C 30.16in /  1021.2hPa NE 5.0mph /  8km/h 7.0mph /  11.3km/h 88% 0.00in /  0mm
06:24 58.0 °F /  14.4 °C 54.5 °F /  12.5 °C 30.16in /  1021.2hPa NNE 1.0mph /  1.6km/h 5.0mph /  8km/h 88% 0.00in /  0mm
06:29 57.9 °F /  14.4 °C 54.4 °F /  12.4 °C 30.16in /  1021.2hPa NE 3.0mph /  4.8km/h 6.0mph /  9.7km/h 88% 0.00in /  0mm
06:35 57.8 °F /  14.3 °C 54.0 °F /  12.2 °C 30.16in /  1021.2hPa ENE 4.0mph /  6.4km/h 8.0mph /  12.9km/h 87% 0.00in /  0mm
06:40 57.8 °F /  14.3 °C 54.0 °F /  12.2 °C 30.16in /  1021.2hPa NNE 5.0mph /  8km/h 7.0mph /  11.3km/h 87% 0.00in /  0mm
06:45 57.7 °F /  14.3 °C 53.9 °F /  12.2 °C 30.16in /  1021.2hPa NNE 2.0mph /  3.2km/h 7.0mph /  11.3km/h 87% 0.00in /  0mm
06:50 57.7 °F /  14.3 °C 53.9 °F /  12.2 °C 30.16in /  1021.2hPa NE 8.0mph /  12.9km/h 8.0mph /  12.9km/h 87% 0.00in /  0mm
06:55 57.6 °F /  14.2 °C 53.8 °F /  12.1 °C 30.16in /  1021.2hPa NE 9.0mph /  14.5km/h 9.0mph /  14.5km/h 87% 0.00in /  0mm
07:00 57.6 °F /  14.2 °C 53.8 °F /  12.1 °C 30.16in /  1021.2hPa NNE 6.0mph /  9.7km/h 10.0mph /  16.1km/h 87% 0.00in /  0mm
07:05 57.5 °F /  14.2 °C 53.7 °F /  12.1 °C 30.16in /  1021.2hPa NE 5.0mph /  8km/h 8.0mph /  12.9km/h 87% 0.00in /  0mm
07:10 57.5 °F /  14.2 °C 53.7 °F /  12.1 °C 30.16in /  1021.2hPa NNE 1.0mph /  1.6km/h 12.0mph /  19.3km/h 87% 0.00in /  0mm
07:15 57.4 °F /  14.1 °C 53.6 °F /  12 °C 30.17in /  1021.6hPa ENE 4.0mph /  6.4km/h 8.0mph /  12.9km/h 87% 0.00in /  0mm
07:20 57.4 °F /  14.1 °C 53.6 °F /  12 °C 30.17in /  1021.6hPa North 4.0mph /  6.4km/h 6.0mph /  9.7km/h 87% 0.00in /  0mm
07:25 57.4 °F /  14.1 °C 53.6 °F /  12 °C 30.17in /  1021.6hPa North 4.0mph /  6.4km/h 6.0mph /  9.7km/h 87% 0.00in /  0mm
07:30 57.4 °F /  14.1 °C 53.6 °F /  12 °C 30.17in /  1021.6hPa NE 4.0mph /  6.4km/h 6.0mph /  9.7km/h 87% 0.00in /  0mm
07:35 57.4 °F /  14.1 °C 53.6 °F /  12 °C 30.17in /  1021.6hPa NNE 3.0mph /  4.8km/h 6.0mph /  9.7km/h 87% 0.00in /  0mm
07:40 57.4 °F /  14.1 °C 53.2 °F /  11.8 °C 30.17in /  1021.6hPa NNE 3.0mph /  4.8km/h 9.0mph /  14.5km/h 86% 0.00in /  0mm
07:45 57.4 °F /  14.1 °C 53.2 °F /  11.8 °C 30.17in /  1021.6hPa NE 3.0mph /  4.8km/h 7.0mph /  11.3km/h 86% 0.00in /  0mm
07:50 57.4 °F /  14.1 °C 53.2 °F /  11.8 °C 30.17in /  1021.6hPa NE 3.0mph /  4.8km/h 7.0mph /  11.3km/h 86% 0.00in /  0mm
07:55 57.3 °F /  14.1 °C 53.2 °F /  11.8 °C 30.17in /  1021.6hPa NE 2.0mph /  3.2km/h 6.0mph /  9.7km/h 86% 0.00in /  0mm
08:00 57.3 °F /  14.1 °C 53.2 °F /  11.8 °C 30.18in /  1021.9hPa NE 2.0mph /  3.2km/h 4.0mph /  6.4km/h 86% 0.00in /  0mm
08:05 57.3 °F /  14.1 °C 53.2 °F /  11.8 °C 30.18in /  1021.9hPa NE 4.0mph /  6.4km/h 5.0mph /  8km/h 86% 0.00in /  0mm
08:10 57.2 °F /  14 °C 53.4 °F /  11.9 °C 30.18in /  1021.9hPa NE 2.0mph /  3.2km/h 4.0mph /  6.4km/h 87% 0.00in /  0mm
08:15 57.1 °F /  13.9 °C 53.6 °F /  12 °C 30.18in /  1021.9hPa North 2.0mph /  3.2km/h 3.0mph /  4.8km/h 88% 0.00in /  0mm
08:20 56.9 °F /  13.8 °C 53.7 °F /  12.1 °C 30.18in /  1021.9hPa NW 5.0mph /  8km/h 5.0mph /  8km/h 89% 0.00in /  0mm
08:25 56.7 °F /  13.7 °C 53.8 °F /  12.1 °C 30.18in /  1021.9hPa NNW 3.0mph /  4.8km/h 5.0mph /  8km/h 90% 0.00in /  0mm
08:31 56.5 °F /  13.6 °C 53.6 °F /  12 °C 30.19in /  1022.2hPa NW 3.0mph /  4.8km/h 4.0mph /  6.4km/h 90% 0.00in /  0mm
08:36 56.4 °F /  13.6 °C 53.8 °F /  12.1 °C 30.19in /  1022.2hPa NW 1.0mph /  1.6km/h 3.0mph /  4.8km/h 91% 0.00in /  0mm
08:41 56.3 °F /  13.5 °C 53.7 °F /  12.1 °C 30.19in /  1022.2hPa North 3.0mph /  4.8km/h 4.0mph /  6.4km/h 91% 0.00in /  0mm
08:46 56.3 °F /  13.5 °C 54.0 °F /  12.2 °C 30.19in /  1022.2hPa NW 1.0mph /  1.6km/h 3.0mph /  4.8km/h 92% 0.00in /  0mm
08:51 56.3 °F /  13.5 °C 54.0 °F /  12.2 °C 30.20in /  1022.6hPa NNW 3.0mph /  4.8km/h 5.0mph /  8km/h 92% 0.00in /  0mm
08:56 56.2 °F /  13.4 °C 53.9 °F /  12.2 °C 30.19in /  1022.2hPa North 1.0mph /  1.6km/h 3.0mph /  4.8km/h 92% 0.00in /  0mm
09:01 56.1 °F /  13.4 °C 53.8 °F /  12.1 °C 30.19in /  1022.2hPa NNW 3.0mph /  4.8km/h 6.0mph /  9.7km/h 92% 0.04in /  1.02mm
09:06 56.1 °F /  13.4 °C 54.1 °F /  12.3 °C 30.20in /  1022.6hPa North 4.0mph /  6.4km/h 5.0mph /  8km/h 93% 0.04in /  1.02mm
09:11 56.0 °F /  13.3 °C 54.0 °F /  12.2 °C 30.20in /  1022.6hPa NW 2.0mph /  3.2km/h 5.0mph /  8km/h 93% 0.04in /  1.02mm
09:16 55.9 °F /  13.3 °C 53.9 °F /  12.2 °C 30.19in /  1022.2hPa North 5.0mph /  8km/h 5.0mph /  8km/h 93% 0.00in /  0mm
09:21 55.8 °F /  13.2 °C 53.8 °F /  12.1 °C 30.20in /  1022.6hPa NNE 2.0mph /  3.2km/h 5.0mph /  8km/h 93% 0.00in /  0mm
09:26 55.8 °F /  13.2 °C 53.8 °F /  12.1 °C 30.20in /  1022.6hPa NE 5.0mph /  8km/h 5.0mph /  8km/h 93% 0.00in /  0mm
09:31 55.7 °F /  13.2 °C 53.7 °F /  12.1 °C 30.20in /  1022.6hPa NNE 2.0mph /  3.2km/h 6.0mph /  9.7km/h 93% 0.00in /  0mm
09:36 55.6 °F /  13.1 °C 53.6 °F /  12 °C 30.20in /  1022.6hPa NNW 2.0mph /  3.2km/h 6.0mph /  9.7km/h 93% 0.04in /  1.02mm
09:41 55.6 °F /  13.1 °C 53.6 °F /  12 °C 30.21in /  1022.9hPa North 4.0mph /  6.4km/h 6.0mph /  9.7km/h 93% 0.04in /  1.02mm
09:46 55.6 °F /  13.1 °C 53.6 °F /  12 °C 30.21in /  1022.9hPa North 1.0mph /  1.6km/h 5.0mph /  8km/h 93% 0.05in /  1.27mm
09:51 55.6 °F /  13.1 °C 53.6 °F /  12 °C 30.21in /  1022.9hPa North 2.0mph /  3.2km/h 5.0mph /  8km/h 93% 0.10in /  2.54mm
09:56 55.6 °F /  13.1 °C 53.6 °F /  12 °C 30.21in /  1022.9hPa North 5.0mph /  8km/h 7.0mph /  11.3km/h 93% 0.10in /  2.54mm
10:01 55.7 °F /  13.2 °C 53.7 °F /  12.1 °C 30.21in /  1022.9hPa NNE 5.0mph /  8km/h 6.0mph /  9.7km/h 93% 0.06in /  1.52mm
10:06 55.8 °F /  13.2 °C 53.8 °F /  12.1 °C 30.22in /  1023.2hPa North 4.0mph /  6.4km/h 6.0mph /  9.7km/h 93% 0.06in /  1.52mm
10:11 55.9 °F /  13.3 °C 53.9 °F /  12.2 °C 30.22in /  1023.2hPa NNW 3.0mph /  4.8km/h 5.0mph /  8km/h 93% 0.05in /  1.27mm
10:16 55.9 °F /  13.3 °C 53.9 °F /  12.2 °C 30.22in /  1023.2hPa NNW 3.0mph /  4.8km/h 4.0mph /  6.4km/h 93% 0.04in /  1.02mm
10:21 56.0 °F /  13.3 °C 54.0 °F /  12.2 °C 30.22in /  1023.2hPa NNE 3.0mph /  4.8km/h 8.0mph /  12.9km/h 93% 0.00in /  0mm
10:26 56.1 °F /  13.4 °C 54.1 °F /  12.3 °C 30.22in /  1023.2hPa North 4.0mph /  6.4km/h 6.0mph /  9.7km/h 93% 0.00in /  0mm
10:31 56.1 °F /  13.4 °C 54.1 °F /  12.3 °C 30.22in /  1023.2hPa North 3.0mph /  4.8km/h 5.0mph /  8km/h 93% 0.00in /  0mm
10:36 56.1 °F /  13.4 °C 54.1 °F /  12.3 °C 30.23in /  1023.6hPa NNW 2.0mph /  3.2km/h 5.0mph /  8km/h 93% 0.00in /  0mm
10:41 56.1 °F /  13.4 °C 54.1 °F /  12.3 °C 30.23in /  1023.6hPa North 1.0mph /  1.6km/h 4.0mph /  6.4km/h 93% 0.00in /  0mm
10:46 56.0 °F /  13.3 °C 54.0 °F /  12.2 °C 30.23in /  1023.6hPa North 3.0mph /  4.8km/h 4.0mph /  6.4km/h 93% 0.00in /  0mm
10:51 56.0 °F /  13.3 °C 54.0 °F /  12.2 °C 30.23in /  1023.6hPa NNE 4.0mph /  6.4km/h 4.0mph /  6.4km/h 93% 0.00in /  0mm
10:56 56.0 °F /  13.3 °C 54.0 °F /  12.2 °C 30.23in /  1023.6hPa NNE 3.0mph /  4.8km/h 5.0mph /  8km/h 93% 0.00in /  0mm
11:01 56.1 °F /  13.4 °C 54.1 °F /  12.3 °C 30.23in /  1023.6hPa North 6.0mph /  9.7km/h 6.0mph /  9.7km/h 93% 0.00in /  0mm
11:06 56.1 °F /  13.4 °C 54.1 °F /  12.3 °C 30.23in /  1023.6hPa NNE 3.0mph /  4.8km/h 8.0mph /  12.9km/h 93% 0.00in /  0mm
11:12 56.1 °F /  13.4 °C 54.1 °F /  12.3 °C 30.23in /  1023.6hPa NNE 4.0mph /  6.4km/h 6.0mph /  9.7km/h 93% 0.06in /  1.52mm
11:17 56.2 °F /  13.4 °C 54.2 °F /  12.3 °C 30.23in /  1023.6hPa North 7.0mph /  11.3km/h 7.0mph /  11.3km/h 93% 0.05in /  1.27mm
11:22 56.3 °F /  13.5 °C 54.3 °F /  12.4 °C 30.23in /  1023.6hPa North 4.0mph /  6.4km/h 8.0mph /  12.9km/h 93% 0.05in /  1.27mm
11:27 56.5 °F /  13.6 °C 54.5 °F /  12.5 °C 30.23in /  1023.6hPa NNE 3.0mph /  4.8km/h 4.0mph /  6.4km/h 93% 0.05in /  1.27mm
11:32 56.6 °F /  13.7 °C 54.6 °F /  12.6 °C 30.23in /  1023.6hPa North 4.0mph /  6.4km/h 8.0mph /  12.9km/h 93% 0.04in /  1.02mm
11:37 56.6 °F /  13.7 °C 54.6 °F /  12.6 °C 30.23in /  1023.6hPa NNW 2.0mph /  3.2km/h 7.0mph /  11.3km/h 93% 0.00in /  0mm
11:42 56.7 °F /  13.7 °C 54.7 °F /  12.6 °C 30.23in /  1023.6hPa NNE 2.0mph /  3.2km/h 5.0mph /  8km/h 93% 0.00in /  0mm
11:47 56.6 °F /  13.7 °C 54.6 °F /  12.6 °C 30.23in /  1023.6hPa North 6.0mph /  9.7km/h 7.0mph /  11.3km/h 93% 0.00in /  0mm
11:52 56.6 °F /  13.7 °C 54.6 °F /  12.6 °C 30.23in /  1023.6hPa NNW 6.0mph /  9.7km/h 7.0mph /  11.3km/h 93% 0.00in /  0mm
11:57 56.6 °F /  13.7 °C 54.6 °F /  12.6 °C 30.23in /  1023.6hPa NNE 4.0mph /  6.4km/h 7.0mph /  11.3km/h 93% 0.00in /  0mm
12:02 56.6 °F /  13.7 °C 54.6 °F /  12.6 °C 30.23in /  1023.6hPa North 3.0mph /  4.8km/h 7.0mph /  11.3km/h 93% 0.00in /  0mm
12:07 56.5 °F /  13.6 °C 54.5 °F /  12.5 °C 30.24in /  1023.9hPa NW 1.0mph /  1.6km/h 7.0mph /  11.3km/h 93% 0.00in /  0mm
12:12 56.4 °F /  13.6 °C 54.4 °F /  12.4 °C 30.24in /  1023.9hPa NNE 4.0mph /  6.4km/h 5.0mph /  8km/h 93% 0.00in /  0mm
12:18 56.4 °F /  13.6 °C 54.4 °F /  12.4 °C 30.24in /  1023.9hPa NNE 3.0mph /  4.8km/h 5.0mph /  8km/h 93% 0.00in /  0mm
12:23 56.4 °F /  13.6 °C 54.4 °F /  12.4 °C 30.24in /  1023.9hPa NE 4.0mph /  6.4km/h 6.0mph /  9.7km/h 93% 0.00in /  0mm
12:28 56.3 °F /  13.5 °C 54.3 °F /  12.4 °C 30.24in /  1023.9hPa NNE 4.0mph /  6.4km/h 7.0mph /  11.3km/h 93% 0.00in /  0mm
12:33 56.2 °F /  13.4 °C 54.2 °F /  12.3 °C 30.23in /  1023.6hPa NNE 4.0mph /  6.4km/h 7.0mph /  11.3km/h 93% 0.00in /  0mm
12:38 56.2 °F /  13.4 °C 54.2 °F /  12.3 °C 30.23in /  1023.6hPa NE 4.0mph /  6.4km/h 7.0mph /  11.3km/h 93% 0.06in /  1.52mm
12:43 56.1 °F /  13.4 °C 54.1 °F /  12.3 °C 30.23in /  1023.6hPa North 3.0mph /  4.8km/h 6.0mph /  9.7km/h 93% 0.06in /  1.52mm
12:48 56.1 °F /  13.4 °C 54.1 °F /  12.3 °C 30.23in /  1023.6hPa North 3.0mph /  4.8km/h 7.0mph /  11.3km/h 93% 0.09in /  2.29mm
12:53 56.0 °F /  13.3 °C 54.0 °F /  12.2 °C 30.23in /  1023.6hPa NW 2.0mph /  3.2km/h 7.0mph /  11.3km/h 93% 0.07in /  1.78mm
12:58 56.0 °F /  13.3 °C 54.0 °F /  12.2 °C 30.24in /  1023.9hPa North 5.0mph /  8km/h 5.0mph /  8km/h 93% 0.05in /  1.27mm
13:03 56.0 °F /  13.3 °C 54.0 °F /  12.2 °C 30.24in /  1023.9hPa North 4.0mph /  6.4km/h 6.0mph /  9.7km/h 93% 0.05in /  1.27mm
13:08 56.1 °F /  13.4 °C 54.4 °F /  12.4 °C 30.24in /  1023.9hPa NE 5.0mph /  8km/h 5.0mph /  8km/h 94% 0.06in /  1.52mm
13:13 56.1 °F /  13.4 °C 54.4 °F /  12.4 °C 30.24in /  1023.9hPa North 3.0mph /  4.8km/h 4.0mph /  6.4km/h 94% 0.06in /  1.52mm
13:18 56.1 °F /  13.4 °C 54.4 °F /  12.4 °C 30.24in /  1023.9hPa North 1.0mph /  1.6km/h 5.0mph /  8km/h 94% 0.06in /  1.52mm
13:23 56.1 °F /  13.4 °C 54.4 °F /  12.4 °C 30.24in /  1023.9hPa North 2.0mph /  3.2km/h 4.0mph /  6.4km/h 94% 0.05in /  1.27mm
13:28 56.0 °F /  13.3 °C 54.3 °F /  12.4 °C 30.24in /  1023.9hPa North 3.0mph /  4.8km/h 6.0mph /  9.7km/h 94% 0.05in /  1.27mm
13:33 55.9 °F /  13.3 °C 54.2 °F /  12.3 °C 30.24in /  1023.9hPa NW 5.0mph /  8km/h 5.0mph /  8km/h 94% 0.05in /  1.27mm
13:38 56.1 °F /  13.4 °C 54.4 °F /  12.4 °C 30.24in /  1023.9hPa NNW 3.0mph /  4.8km/h 5.0mph /  8km/h 94% 0.05in /  1.27mm
13:43 56.1 °F /  13.4 °C 54.4 °F /  12.4 °C 30.24in /  1023.9hPa NNE 3.0mph /  4.8km/h 4.0mph /  6.4km/h 94% 0.07in /  1.78mm
13:48 56.0 °F /  13.3 °C 54.3 °F /  12.4 °C 30.24in /  1023.9hPa North 2.0mph /  3.2km/h 6.0mph /  9.7km/h 94% 0.07in /  1.78mm
13:53 56.2 °F /  13.4 °C 54.5 °F /  12.5 °C 30.24in /  1023.9hPa NNE 3.0mph /  4.8km/h 4.0mph /  6.4km/h 94% 0.07in /  1.78mm
13:58 56.1 °F /  13.4 °C 54.4 °F /  12.4 °C 30.25in /  1024.3hPa NNE 6.0mph /  9.7km/h 8.0mph /  12.9km/h 94% 0.07in /  1.78mm
14:03 56.1 °F /  13.4 °C 54.4 °F /  12.4 °C 30.25in /  1024.3hPa NW 4.0mph /  6.4km/h 6.0mph /  9.7km/h 94% 0.04in /  1.02mm
14:08 56.1 °F /  13.4 °C 54.4 °F /  12.4 °C 30.25in /  1024.3hPa North 5.0mph /  8km/h 8.0mph /  12.9km/h 94% 0.04in /  1.02mm
14:13 56.0 °F /  13.3 °C 54.3 °F /  12.4 °C 30.25in /  1024.3hPa NNW 2.0mph /  3.2km/h 7.0mph /  11.3km/h 94% 0.04in /  1.02mm
14:18 56.1 °F /  13.4 °C 54.4 °F /  12.4 °C 30.25in /  1024.3hPa NNW 3.0mph /  4.8km/h 6.0mph /  9.7km/h 94% 0.05in /  1.27mm
14:23 56.1 °F /  13.4 °C 54.4 °F /  12.4 °C 30.25in /  1024.3hPa North 4.0mph /  6.4km/h 7.0mph /  11.3km/h 94% 0.05in /  1.27mm
14:28 56.0 °F /  13.3 °C 54.3 °F /  12.4 °C 30.25in /  1024.3hPa NNW 6.0mph /  9.7km/h 9.0mph /  14.5km/h 94% 0.06in /  1.52mm
14:33 56.0 °F /  13.3 °C 54.3 °F /  12.4 °C 30.25in /  1024.3hPa NW 1.0mph /  1.6km/h 7.0mph /  11.3km/h 94% 0.07in /  1.78mm
14:38 56.0 °F /  13.3 °C 54.3 °F /  12.4 °C 30.25in /  1024.3hPa NNW 3.0mph /  4.8km/h 7.0mph /  11.3km/h 94% 0.07in /  1.78mm
14:43 56.0 °F /  13.3 °C 54.3 °F /  12.4 °C 30.26in /  1024.6hPa North 3.0mph /  4.8km/h 7.0mph /  11.3km/h 94% 0.08in /  2.03mm
14:48 56.0 °F /  13.3 °C 54.3 °F /  12.4 °C 30.26in /  1024.6hPa NW 4.0mph /  6.4km/h 5.0mph /  8km/h 94% 0.08in /  2.03mm
14:53 56.0 °F /  13.3 °C 54.3 °F /  12.4 °C 30.26in /  1024.6hPa NW 3.0mph /  4.8km/h 7.0mph /  11.3km/h 94% 0.06in /  1.52mm
14:58 55.9 °F /  13.3 °C 54.2 °F /  12.3 °C 30.26in /  1024.6hPa North 6.0mph /  9.7km/h 8.0mph /  12.9km/h 94% 0.08in /  2.03mm
15:04 55.8 °F /  13.2 °C 54.1 °F /  12.3 °C 30.26in /  1024.6hPa NNW 7.0mph /  11.3km/h 8.0mph /  12.9km/h 94% 0.08in /  2.03mm
15:09 55.8 °F /  13.2 °C 54.1 °F /  12.3 °C 30.26in /  1024.6hPa NNW 8.0mph /  12.9km/h 8.0mph /  12.9km/h 94% 0.10in /  2.54mm
15:14 55.8 °F /  13.2 °C 54.1 °F /  12.3 °C 30.25in /  1024.3hPa NNE 6.0mph /  9.7km/h 7.0mph /  11.3km/h 94% 0.11in /  2.79mm
15:19 56.0 °F /  13.3 °C 54.3 °F /  12.4 °C 30.25in /  1024.3hPa North 6.0mph /  9.7km/h 6.0mph /  9.7km/h 94% 0.07in /  1.78mm
15:24 56.1 °F /  13.4 °C 54.4 °F /  12.4 °C 30.26in /  1024.6hPa NW 4.0mph /  6.4km/h 9.0mph /  14.5km/h 94% 0.07in /  1.78mm
15:29 56.3 °F /  13.5 °C 54.6 °F /  12.6 °C 30.25in /  1024.3hPa NNW 6.0mph /  9.7km/h 9.0mph /  14.5km/h 94% 0.06in /  1.52mm
15:34 56.2 °F /  13.4 °C 54.5 °F /  12.5 °C 30.25in /  1024.3hPa NW 4.0mph /  6.4km/h 10.0mph /  16.1km/h 94% 0.04in /  1.02mm
15:39 56.3 °F /  13.5 °C 54.6 °F /  12.6 °C 30.25in /  1024.3hPa NW 6.0mph /  9.7km/h 9.0mph /  14.5km/h 94% 0.00in /  0mm
15:44 56.3 °F /  13.5 °C 54.6 °F /  12.6 °C 30.24in /  1023.9hPa North 8.0mph /  12.9km/h 11.0mph /  17.7km/h 94% 0.00in /  0mm
15:49 56.3 °F /  13.5 °C 54.6 °F /  12.6 °C 30.24in /  1023.9hPa NNE 3.0mph /  4.8km/h 7.0mph /  11.3km/h 94% 0.00in /  0mm
15:54 56.2 °F /  13.4 °C 54.5 °F /  12.5 °C 30.24in /  1023.9hPa North 8.0mph /  12.9km/h 9.0mph /  14.5km/h 94% 0.00in /  0mm
15:59 56.1 °F /  13.4 °C 54.1 °F /  12.3 °C 30.23in /  1023.6hPa NNW 6.0mph /  9.7km/h 16.0mph /  25.7km/h 93% 0.00in /  0mm
16:04 56.0 °F /  13.3 °C 54.0 °F /  12.2 °C 30.23in /  1023.6hPa NNE 4.0mph /  6.4km/h 11.0mph /  17.7km/h 93% 0.00in /  0mm
16:09 55.8 °F /  13.2 °C 53.5 °F /  11.9 °C 30.23in /  1023.6hPa North 4.0mph /  6.4km/h 10.0mph /  16.1km/h 92% 0.00in /  0mm
16:14 55.8 °F /  13.2 °C 53.5 °F /  11.9 °C 30.23in /  1023.6hPa NNW 8.0mph /  12.9km/h 14.0mph /  22.5km/h 92% 0.00in /  0mm
16:19 55.7 °F /  13.2 °C 53.1 °F /  11.7 °C 30.23in /  1023.6hPa NNW 6.0mph /  9.7km/h 12.0mph /  19.3km/h 91% 0.00in /  0mm
16:24 55.6 °F /  13.1 °C 53.0 °F /  11.7 °C 30.23in /  1023.6hPa NNW 8.0mph /  12.9km/h 11.0mph /  17.7km/h 91% 0.00in /  0mm
16:30 55.5 °F /  13.1 °C 52.6 °F /  11.4 °C 30.22in /  1023.2hPa NNW 8.0mph /  12.9km/h 12.0mph /  19.3km/h 90% 0.00in /  0mm
16:35 55.4 °F /  13 °C 52.5 °F /  11.4 °C 30.22in /  1023.2hPa North 9.0mph /  14.5km/h 9.0mph /  14.5km/h 90% 0.00in /  0mm
16:40 55.4 °F /  13 °C 52.5 °F /  11.4 °C 30.22in /  1023.2hPa WNW 3.0mph /  4.8km/h 8.0mph /  12.9km/h 90% 0.00in /  0mm
16:45 55.3 °F /  12.9 °C 52.1 °F /  11.2 °C 30.22in /  1023.2hPa NNW 5.0mph /  8km/h 14.0mph /  22.5km/h 89% 0.00in /  0mm
16:50 55.4 °F /  13 °C 52.2 °F /  11.2 °C 30.22in /  1023.2hPa NE 5.0mph /  8km/h 11.0mph /  17.7km/h 89% 0.00in /  0mm
16:55 55.5 °F /  13.1 °C 52.0 °F /  11.1 °C 30.21in /  1022.9hPa NNW 4.0mph /  6.4km/h 10.0mph /  16.1km/h 88% 0.00in /  0mm
17:00 55.5 °F /  13.1 °C 51.7 °F /  10.9 °C 30.21in /  1022.9hPa North 6.0mph /  9.7km/h 8.0mph /  12.9km/h 87% 0.00in /  0mm
17:05 55.3 °F /  12.9 °C 51.5 °F /  10.8 °C 30.21in /  1022.9hPa NNW 3.0mph /  4.8km/h 11.0mph /  17.7km/h 87% 0.00in /  0mm
17:10 55.2 °F /  12.9 °C 51.4 °F /  10.8 °C 30.22in /  1023.2hPa NNE 3.0mph /  4.8km/h 6.0mph /  9.7km/h 87% 0.00in /  0mm
17:15 55.1 °F /  12.8 °C 51.0 °F /  10.6 °C 30.22in /  1023.2hPa NW 5.0mph /  8km/h 9.0mph /  14.5km/h 86% 0.00in /  0mm
17:20 55.1 °F /  12.8 °C 51.0 °F /  10.6 °C 30.23in /  1023.6hPa NW 3.0mph /  4.8km/h 7.0mph /  11.3km/h 86% 0.00in /  0mm
17:25 55.0 °F /  12.8 °C 50.6 °F /  10.3 °C 30.22in /  1023.2hPa NNE 4.0mph /  6.4km/h 9.0mph /  14.5km/h 85% 0.00in /  0mm
17:30 55.0 °F /  12.8 °C 50.9 °F /  10.5 °C 30.22in /  1023.2hPa NNE 7.0mph /  11.3km/h 8.0mph /  12.9km/h 86% 0.00in /  0mm
17:35 54.9 °F /  12.7 °C 51.1 °F /  10.6 °C 30.21in /  1022.9hPa NE 11.0mph /  17.7km/h 11.0mph /  17.7km/h 87% 0.00in /  0mm
17:40 54.7 °F /  12.6 °C 50.9 °F /  10.5 °C 30.21in /  1022.9hPa NNW 2.0mph /  3.2km/h 7.0mph /  11.3km/h 87% 0.00in /  0mm
17:46 54.4 °F /  12.4 °C 50.9 °F /  10.5 °C 30.21in /  1022.9hPa North 8.0mph /  12.9km/h 12.0mph /  19.3km/h 88% 0.00in /  0mm
17:51 54.2 °F /  12.3 °C 51.0 °F /  10.6 °C 30.21in /  1022.9hPa North 3.0mph /  4.8km/h 13.0mph /  20.9km/h 89% 0.00in /  0mm
17:56 54.1 °F /  12.3 °C 50.9 °F /  10.5 °C 30.20in /  1022.6hPa North 9.0mph /  14.5km/h 9.0mph /  14.5km/h 89% 0.00in /  0mm
18:02 54.1 °F /  12.3 °C 50.9 °F /  10.5 °C 30.20in /  1022.6hPa NNE 5.0mph /  8km/h 10.0mph /  16.1km/h 89% 0.00in /  0mm
18:07 54.1 °F /  12.3 °C 50.9 °F /  10.5 °C 30.20in /  1022.6hPa NNE 8.0mph /  12.9km/h 9.0mph /  14.5km/h 89% 0.00in /  0mm
18:12 54.1 °F /  12.3 °C 50.9 °F /  10.5 °C 30.19in /  1022.2hPa North 5.0mph /  8km/h 7.0mph /  11.3km/h 89% 0.00in /  0mm
18:17 54.2 °F /  12.3 °C 50.7 °F /  10.4 °C 30.19in /  1022.2hPa NNE 6.0mph /  9.7km/h 6.0mph /  9.7km/h 88% 0.00in /  0mm
18:22 54.3 °F /  12.4 °C 50.8 °F /  10.4 °C 30.18in /  1021.9hPa NNE 3.0mph /  4.8km/h 10.0mph /  16.1km/h 88% 0.00in /  0mm
18:27 54.4 °F /  12.4 °C 50.9 °F /  10.5 °C 30.18in /  1021.9hPa North 6.0mph /  9.7km/h 6.0mph /  9.7km/h 88% 0.00in /  0mm
18:32 54.5 °F /  12.5 °C 51.0 °F /  10.6 °C 30.17in /  1021.6hPa NNE 3.0mph /  4.8km/h 8.0mph /  12.9km/h 88% 0.00in /  0mm
18:37 54.5 °F /  12.5 °C 51.0 °F /  10.6 °C 30.17in /  1021.6hPa NNE 5.0mph /  8km/h 8.0mph /  12.9km/h 88% 0.00in /  0mm
18:42 54.6 °F /  12.6 °C 50.8 °F /  10.4 °C 30.16in /  1021.2hPa NE 7.0mph /  11.3km/h 12.0mph /  19.3km/h 87% 0.00in /  0mm
18:47 54.7 °F /  12.6 °C 50.9 °F /  10.5 °C 30.16in /  1021.2hPa NNE 2.0mph /  3.2km/h 13.0mph /  20.9km/h 87% 0.00in /  0mm
18:52 54.7 °F /  12.6 °C 50.9 °F /  10.5 °C 30.16in /  1021.2hPa NNE 2.0mph /  3.2km/h 9.0mph /  14.5km/h 87% 0.00in /  0mm
18:57 54.7 °F /  12.6 °C 50.9 °F /  10.5 °C 30.16in /  1021.2hPa NNW 5.0mph /  8km/h 8.0mph /  12.9km/h 87% 0.00in /  0mm
19:02 54.7 °F /  12.6 °C 50.9 °F /  10.5 °C 30.16in /  1021.2hPa North 4.0mph /  6.4km/h 7.0mph /  11.3km/h 87% 0.00in /  0mm
19:07 54.7 °F /  12.6 °C 51.2 °F /  10.7 °C 30.16in /  1021.2hPa North 5.0mph /  8km/h 7.0mph /  11.3km/h 88% 0.00in /  0mm
19:12 54.7 °F /  12.6 °C 51.2 °F /  10.7 °C 30.16in /  1021.2hPa NE 3.0mph /  4.8km/h 8.0mph /  12.9km/h 88% 0.00in /  0mm
19:17 54.7 °F /  12.6 °C 51.2 °F /  10.7 °C 30.16in /  1021.2hPa North 2.0mph /  3.2km/h 7.0mph /  11.3km/h 88% 0.00in /  0mm
19:22 54.7 °F /  12.6 °C 51.2 °F /  10.7 °C 30.16in /  1021.2hPa NNE 6.0mph /  9.7km/h 8.0mph /  12.9km/h 88% 0.00in /  0mm
19:28 54.7 °F /  12.6 °C 51.2 °F /  10.7 °C 30.16in /  1021.2hPa NE 4.0mph /  6.4km/h 5.0mph /  8km/h 88% 0.00in /  0mm
19:33 54.7 °F /  12.6 °C 51.2 °F /  10.7 °C 30.17in /  1021.6hPa NE 2.0mph /  3.2km/h 5.0mph /  8km/h 88% 0.00in /  0mm
19:38 54.7 °F /  12.6 °C 51.2 °F /  10.7 °C 30.16in /  1021.2hPa NNE 2.0mph /  3.2km/h 4.0mph /  6.4km/h 88% 0.00in /  0mm
19:43 54.7 °F /  12.6 °C 51.2 °F /  10.7 °C 30.16in /  1021.2hPa NNE 2.0mph /  3.2km/h 5.0mph /  8km/h 88% 0.00in /  0mm
19:48 54.9 °F /  12.7 °C 51.1 °F /  10.6 °C 30.16in /  1021.2hPa NE 2.0mph /  3.2km/h 5.0mph /  8km/h 87% 0.00in /  0mm
19:53 55.0 °F /  12.8 °C 51.2 °F /  10.7 °C 30.17in /  1021.6hPa NNE 1.0mph /  1.6km/h 6.0mph /  9.7km/h 87% 0.00in /  0mm
19:58 54.9 °F /  12.7 °C 51.1 °F /  10.6 °C 30.17in /  1021.6hPa NNE 2.0mph /  3.2km/h 4.0mph /  6.4km/h 87% 0.00in /  0mm
20:04 54.7 °F /  12.6 °C 51.2 °F /  10.7 °C 30.17in /  1021.6hPa NE 2.0mph /  3.2km/h 2.0mph /  3.2km/h 88% 0.00in /  0mm
20:09 54.5 °F /  12.5 °C 51.3 °F /  10.7 °C 30.16in /  1021.2hPa ENE 3.0mph /  4.8km/h 4.0mph /  6.4km/h 89% 0.00in /  0mm
20:14 54.5 °F /  12.5 °C 51.3 °F /  10.7 °C 30.16in /  1021.2hPa ENE 5.0mph /  8km/h 6.0mph /  9.7km/h 89% 0.00in /  0mm
20:19 54.4 °F /  12.4 °C 51.2 °F /  10.7 °C 30.15in /  1020.9hPa ENE 2.0mph /  3.2km/h 4.0mph /  6.4km/h 89% 0.00in /  0mm
20:24 54.3 °F /  12.4 °C 51.1 °F /  10.6 °C 30.15in /  1020.9hPa NE 2.0mph /  3.2km/h 6.0mph /  9.7km/h 89% 0.00in /  0mm
20:29 54.3 °F /  12.4 °C 51.1 °F /  10.6 °C 30.15in /  1020.9hPa NE 1.0mph /  1.6km/h 4.0mph /  6.4km/h 89% 0.00in /  0mm
20:34 54.2 °F /  12.3 °C 51.3 °F /  10.7 °C 30.15in /  1020.9hPa NNE 2.0mph /  3.2km/h 3.0mph /  4.8km/h 90% 0.00in /  0mm
20:39 54.0 °F /  12.2 °C 51.4 °F /  10.8 °C 30.15in /  1020.9hPa NW 2.0mph /  3.2km/h 2.0mph /  3.2km/h 91% 0.00in /  0mm
20:45 53.7 °F /  12.1 °C 51.1 °F /  10.6 °C 30.15in /  1020.9hPa NNW 1.0mph /  1.6km/h 2.0mph /  3.2km/h 91% 0.00in /  0mm
20:50 53.5 °F /  11.9 °C 51.2 °F /  10.7 °C 30.15in /  1020.9hPa Calm   2.0mph /  3.2km/h 92% 0.00in /  0mm
20:55 53.4 °F /  11.9 °C 51.1 °F /  10.6 °C 30.15in /  1020.9hPa North 1.0mph /  1.6km/h 1.0mph /  1.6km/h 92% 0.00in /  0mm
21:00 53.4 °F /  11.9 °C 51.4 °F /  10.8 °C 30.15in /  1020.9hPa Calm   2.0mph /  3.2km/h 93% 0.00in /  0mm
21:05 53.4 °F /  11.9 °C 51.4 °F /  10.8 °C 30.15in /  1020.9hPa Calm   1.0mph /  1.6km/h 93% 0.00in /  0mm
21:10 53.4 °F /  11.9 °C 51.4 °F /  10.8 °C 30.16in /  1021.2hPa NNE 1.0mph /  1.6km/h 1.0mph /  1.6km/h 93% 0.00in /  0mm
21:15 53.4 °F /  11.9 °C 51.4 °F /  10.8 °C 30.16in /  1021.2hPa NE 1.0mph /  1.6km/h 2.0mph /  3.2km/h 93% 0.00in /  0mm
21:21 53.4 °F /  11.9 °C 51.4 °F /  10.8 °C 30.16in /  1021.2hPa East 2.0mph /  3.2km/h 3.0mph /  4.8km/h 93% 0.00in /  0mm
21:26 53.5 °F /  11.9 °C 51.5 °F /  10.8 °C 30.16in /  1021.2hPa East 2.0mph /  3.2km/h 2.0mph /  3.2km/h 93% 0.00in /  0mm
21:31 53.5 °F /  11.9 °C 51.5 °F /  10.8 °C 30.16in /  1021.2hPa ESE 1.0mph /  1.6km/h 2.0mph /  3.2km/h 93% 0.00in /  0mm
21:36 53.4 °F /  11.9 °C 51.4 °F /  10.8 °C 30.16in /  1021.2hPa East 2.0mph /  3.2km/h 3.0mph /  4.8km/h 93% 0.00in /  0mm
21:41 53.4 °F /  11.9 °C 51.4 °F /  10.8 °C 30.16in /  1021.2hPa ENE 2.0mph /  3.2km/h 2.0mph /  3.2km/h 93% 0.00in /  0mm
21:46 53.3 °F /  11.8 °C 51.3 °F /  10.7 °C 30.16in /  1021.2hPa NNE 2.0mph /  3.2km/h 4.0mph /  6.4km/h 93% 0.00in /  0mm
21:52 53.3 °F /  11.8 °C 51.3 °F /  10.7 °C 30.16in /  1021.2hPa North 1.0mph /  1.6km/h 3.0mph /  4.8km/h 93% 0.00in /  0mm
21:56 53.2 °F /  11.8 °C 51.2 °F /  10.7 °C 30.16in /  1021.2hPa NE 2.0mph /  3.2km/h 4.0mph /  6.4km/h 93% 0.00in /  0mm
22:02 53.2 °F /  11.8 °C 51.2 °F /  10.7 °C 30.15in /  1020.9hPa NNE 2.0mph /  3.2km/h 4.0mph /  6.4km/h 93% 0.00in /  0mm
22:07 53.1 °F /  11.7 °C 51.1 °F /  10.6 °C 30.16in /  1021.2hPa NNE 3.0mph /  4.8km/h 3.0mph /  4.8km/h 93% 0.00in /  0mm
22:12 53.0 °F /  11.7 °C 51.3 °F /  10.7 °C 30.17in /  1021.6hPa NNE 1.0mph /  1.6km/h 2.0mph /  3.2km/h 94% 0.00in /  0mm
22:17 53.0 °F /  11.7 °C 51.3 °F /  10.7 °C 30.17in /  1021.6hPa NNE 2.0mph /  3.2km/h 2.0mph /  3.2km/h 94% 0.00in /  0mm
22:22 53.0 °F /  11.7 °C 51.3 °F /  10.7 °C 30.16in /  1021.2hPa NE 1.0mph /  1.6km/h 3.0mph /  4.8km/h 94% 0.00in /  0mm
22:27 52.9 °F /  11.6 °C 51.2 °F /  10.7 °C 30.16in /  1021.2hPa NNW 3.0mph /  4.8km/h 5.0mph /  8km/h 94% 0.00in /  0mm
22:33 52.8 °F /  11.6 °C 51.1 °F /  10.6 °C 30.16in /  1021.2hPa NW 3.0mph /  4.8km/h 5.0mph /  8km/h 94% 0.00in /  0mm
22:38 52.8 °F /  11.6 °C 51.1 °F /  10.6 °C 30.17in /  1021.6hPa NNE 2.0mph /  3.2km/h 4.0mph /  6.4km/h 94% 0.00in /  0mm
22:43 52.8 °F /  11.6 °C 51.1 °F /  10.6 °C 30.16in /  1021.2hPa NNE 2.0mph /  3.2km/h 4.0mph /  6.4km/h 94% 0.00in /  0mm
22:48 52.7 °F /  11.5 °C 51.0 °F /  10.6 °C 30.16in /  1021.2hPa North 5.0mph /  8km/h 5.0mph /  8km/h 94% 0.00in /  0mm
22:53 52.7 °F /  11.5 °C 51.0 °F /  10.6 °C 30.16in /  1021.2hPa NNW 2.0mph /  3.2km/h 5.0mph /  8km/h 94% 0.00in /  0mm
22:56 52.7 °F /  11.5 °C 51.0 °F /  10.6 °C 30.16in /  1021.2hPa North 5.0mph /  8km/h 5.0mph /  8km/h 94% 0.00in /  0mm
23:01 52.7 °F /  11.5 °C 51.0 °F /  10.6 °C 30.16in /  1021.2hPa NNW 3.0mph /  4.8km/h 4.0mph /  6.4km/h 94% 0.00in /  0mm
23:06 52.6 °F /  11.4 °C 50.9 °F /  10.5 °C 30.16in /  1021.2hPa NW 3.0mph /  4.8km/h 6.0mph /  9.7km/h 94% 0.00in /  0mm
23:11 52.6 °F /  11.4 °C 50.9 °F /  10.5 °C 30.17in /  1021.6hPa NNW 4.0mph /  6.4km/h 7.0mph /  11.3km/h 94% 0.00in /  0mm
23:16 52.6 °F /  11.4 °C 50.9 °F /  10.5 °C 30.16in /  1021.2hPa NW 5.0mph /  8km/h 6.0mph /  9.7km/h 94% 0.00in /  0mm
23:21 52.5 °F /  11.4 °C 51.1 °F /  10.6 °C 30.16in /  1021.2hPa NW 4.0mph /  6.4km/h 5.0mph /  8km/h 95% 0.00in /  0mm
23:26 52.4 °F /  11.3 °C 51.0 °F /  10.6 °C 30.16in /  1021.2hPa NNW 8.0mph /  12.9km/h 8.0mph /  12.9km/h 95% 0.00in /  0mm
23:31 52.3 °F /  11.3 °C 50.9 °F /  10.5 °C 30.16in /  1021.2hPa NNW 6.0mph /  9.7km/h 8.0mph /  12.9km/h 95% 0.00in /  0mm
23:36 52.2 °F /  11.2 °C 50.8 °F /  10.4 °C 30.16in /  1021.2hPa NW 6.0mph /  9.7km/h 8.0mph /  12.9km/h 95% 0.00in /  0mm
23:42 52.1 °F /  11.2 °C 50.7 °F /  10.4 °C 30.16in /  1021.2hPa NNW 4.0mph /  6.4km/h 8.0mph /  12.9km/h 95% 0.00in /  0mm
23:47 52.1 °F /  11.2 °C 50.7 °F /  10.4 °C 30.16in /  1021.2hPa NNW 2.0mph /  3.2km/h 9.0mph /  14.5km/h 95% 0.00in /  0mm
23:52 52.0 °F /  11.1 °C 50.6 °F /  10.3 °C 30.15in /  1020.9hPa NNW 5.0mph /  8km/h 11.0mph /  17.7km/h 95% 0.00in /  0mm
23:53 52.0 °F /  11.1 °C 50.6 °F /  10.3 °C 30.15in /  1020.9hPa North 8.0mph /  12.9km/h 11.0mph /  17.7km/h 95% 0.00in /  0mm
23:58 51.9 °F /  11.1 °C 50.5 °F /  10.3 °C 30.15in /  1020.9hPa NW 7.0mph /  11.3km/h 9.0mph /  14.5km/h 95% 0.00in /  0mm
Compliments of Weather Underground